Terminal Aerodrome Forecast
Issued by NWS Wichita, KS

Home | Current Version | Previous Version | Graphics & Text | Print | Product List | Glossary On
Versions: 1 2 3 4 5 6 7 8 9 10 11 12 13 14 15 16 17 18 19 20 21
357
FTUS43 KICT 281143
TAFICT
TAF
KICT 281143Z 2812/2912 30006KT P6SM VCSH SCT040 BKN100
     FM281500 02006KT P6SM SCT100 BKN250
     FM281700 09006KT P6SM SCT040
     FM290200 12008KT P6SM VCTS SCT060CB BKN250=

USA.gov is the U.S. government's official web portal to all federal, state and local government web resources and services.